Latest Weather Observations for Port Pirie Airport AWS***

IDS60801

Issued at 9:05 pm CST Thursday 17 April 2014 (issued every 30 minutes, with the page automatically refreshed every 10 minutes)

About weather observations | Map of weather stations | Latest weather observations for SA | Other Formats
Station Details ID: 250006 Name: PORT PIRIE AERODROME AWS Lat: -33.23 Lon: 138.00 Height: 10.0 m
Data from the previous 72 hours. | See also: Recent months for locations in South Australia
Date/Time
CST
Temp
°C
App
Temp
°C
Dew
Point
Rel
Hum
%
Delta-T
°C
Wind Press
QNH
hPa
Press
MSL
hPa
Rain
since 9 am
mm
Dir
 
Spd
km/h
Gust
km/h
Spd
kts
Gust
kts
17/09:00pm 15.3 14.7 10.3 72 2.6 SSE 4 7 2 4 - - 0.0
17/08:30pm 16.0 15.1 10.5 70 2.9 SSE 6 7 3 4 - - 0.0
17/08:00pm 16.3 15.4 10.8 70 2.9 S 6 7 3 4 - - 0.0
17/07:30pm 16.9 15.4 10.7 67 3.3 SSE 9 9 5 5 - - 0.0
17/07:00pm 18.8 18.0 10.9 60 4.3 S 6 6 3 3 - - 0.0
17/06:30pm 19.5 18.4 10.0 54 5.1 ENE 6 7 3 4 - - 0.0
17/06:00pm 21.3 20.4 10.8 51 5.8 ENE 6 7 3 4 - - 0.0
17/05:30pm 23.7 22.8 10.7 44 7.2 ENE 6 7 3 4 - - 0.0
17/05:00pm 24.9 24.3 10.4 40 8.0 NE 4 6 2 3 - - 0.0
17/04:30pm 24.6 23.8 9.7 39 8.2 NNE 4 7 2 4 - - 0.0
17/04:00pm 25.6 25.3 10.2 38 8.5 S 2 7 1 4 - - 0.0
17/03:30pm 25.9 25.2 10.1 37 8.8 SW 4 9 2 5 - - 0.0
17/03:00pm 25.9 25.1 10.9 39 8.4 WNW 6 11 3 6 - - 0.0
17/02:30pm 24.9 23.8 10.0 39 8.2 W 6 11 3 6 - - 0.0
17/02:00pm 25.0 23.9 10.5 40 8.1 WNW 7 17 4 9 - - 0.0
17/01:30pm 24.6 23.2 9.7 39 8.2 NW 7 15 4 8 - - 0.0
17/01:00pm 24.3 22.4 9.1 38 8.2 NW 9 17 5 9 - - 0.0
17/12:30pm 23.7 21.9 9.3 40 7.8 NW 9 19 5 10 - - 0.0
17/12:00pm 23.2 20.8 8.5 39 7.8 N 11 17 6 9 - - 0.0
17/11:30am 23.3 22.3 11.0 46 6.8 N 7 15 4 8 - - 0.0
17/11:00am 22.3 21.4 10.5 47 6.5 N 6 11 3 6 - - 0.0
17/10:30am 21.8 21.3 10.6 49 6.1 NNW 4 7 2 4 - - 0.0
17/10:00am 20.6 20.7 11.5 56 5.0 NE 2 6 1 3 - - 0.0
17/09:30am 19.2 19.3 11.5 61 4.2 N 2 4 1 2 - - 0.0
17/09:00am 17.9 17.5 11.0 64 3.7 E 4 7 2 4 - - 0.0
17/08:30am 15.5 14.5 10.3 71 2.7 SE 6 9 3 5 - - 0.0
17/08:00am 13.4 12.3 9.8 79 1.8 SSE 6 7 3 4 - - 0.0
17/07:30am 11.3 10.0 9.2 87 1.0 SE 6 7 3 4 - - 0.0
17/07:00am 9.5 7.8 7.6 88 0.9 SE 6 7 3 4 - - 0.0
17/06:30am 9.5 7.8 7.6 88 0.9 SSE 6 7 3 4 - - 0.0
17/06:00am 9.5 7.8 7.4 87 1.0 SSE 6 6 3 3 - - 0.0
17/05:30am 9.8 8.1 7.6 86 1.1 SSE 6 9 3 5 - - 0.0
17/05:00am 10.2 8.6 7.8 85 1.2 SE 6 6 3 3 - - 0.0
17/04:30am 10.7 8.6 8.3 85 1.2 SSE 9 11 5 6 - - 0.0
17/04:00am 11.0 8.5 8.4 84 1.3 SSE 11 15 6 8 - - 0.0
17/03:30am 10.8 8.8 8.6 86 1.1 S 9 13 5 7 - - 0.0
17/03:00am 10.8 9.2 8.6 86 1.1 S 7 9 4 5 - - 0.0
17/02:30am 11.0 9.4 8.6 85 1.2 S 7 9 4 5 - - 0.0
17/02:00am 11.2 9.8 8.8 85 1.2 SSE 6 7 3 4 - - 0.0
17/01:30am 11.6 10.1 9.0 84 1.3 S 7 9 4 5 - - 0.0
17/01:00am 11.6 10.0 8.8 83 1.4 S 7 9 4 5 - - 0.0
17/12:30am 11.9 10.3 8.7 81 1.6 S 7 9 4 5 - - 0.0
17/12:00am 12.3 10.9 9.0 80 1.7 S 6 9 3 5 - - 0.0
 
Date/Time
CST
Temp
°C
App
Temp
°C
Dew
Point
Rel
Hum
%
Delta-T
°C
Wind Press
QNH
hPa
Press
MSL
hPa
Rain
since 9 am
mm
Dir
 
Spd
km/h
Gust
km/h
Spd
kts
Gust
kts
16/11:30pm 12.2 10.8 9.0 81 1.6 SSE 6 7 3 4 - - 0.0
16/11:00pm 12.8 11.5 9.1 78 1.9 S 6 6 3 3 - - 0.0
16/10:30pm 13.0 12.5 9.4 79 1.8 SSE 2 6 1 3 - - 0.0
16/10:00pm 13.2 12.0 9.5 78 1.9 S 6 7 3 4 - - 0.0
16/09:30pm 13.6 12.2 9.5 76 2.1 SSE 7 9 4 5 - - 0.0
16/09:00pm 14.1 12.7 9.7 75 2.3 S 7 7 4 4 - - 0.0
16/08:30pm 15.2 14.1 9.8 70 2.8 SSE 6 6 3 3 - - 0.0
16/08:00pm 16.0 14.9 10.1 68 3.1 SSE 6 7 3 4 - - 0.0
16/07:30pm 16.1 15.3 9.8 66 3.3 ENE 4 6 2 3 - - 0.0
16/07:00pm 16.9 15.5 9.6 62 3.8 ESE 7 9 4 5 - - 0.0
16/06:30pm 18.4 17.3 10.0 58 4.5 SE 6 7 3 4 - - 0.0
16/06:00pm 19.5 18.3 10.2 55 5.0 SSE 7 9 4 5 - - 0.0
16/05:30pm 21.8 20.7 10.0 47 6.4 S 6 7 3 4 - - 0.0
16/05:00pm 23.2 21.9 9.2 41 7.5 SSE 6 9 3 5 - - 0.0
16/04:30pm 23.9 22.8 8.3 37 8.3 SSW 4 7 2 4 - - 0.0
16/04:00pm 24.1 22.5 8.1 36 8.5 SSW 6 13 3 7 - - 0.0
16/03:30pm 24.3 22.9 8.7 37 8.4 WNW 6 9 3 5 - - 0.0
16/03:00pm 23.8 22.4 9.0 39 8.0 W 6 11 3 6 - - 0.0
16/02:30pm 24.0 22.4 8.8 38 8.2 WNW 7 13 4 7 - - 0.0
16/02:00pm 23.7 22.1 8.9 39 7.9 W 7 15 4 8 - - 0.0
16/01:30pm 23.4 21.3 9.8 42 7.4 NNW 11 19 6 10 - - 0.0
16/01:00pm 23.1 20.8 9.1 41 7.5 NNW 11 19 6 10 - - 0.0
16/12:30pm 22.7 21.0 11.1 48 6.4 NNW 11 19 6 10 - - 0.0
16/12:00pm 22.4 20.7 11.2 49 6.2 WNW 11 19 6 10 - - 0.0
16/11:30am 21.8 19.7 11.2 51 5.9 NNW 13 22 7 12 - - 0.0
16/11:00am 21.5 19.1 10.0 48 6.2 NNW 13 24 7 13 - - 0.0
16/10:30am 21.2 19.3 10.4 50 5.9 N 11 20 6 11 - - 0.0
16/10:00am 20.5 19.9 12.2 59 4.6 N 7 11 4 6 - - 0.0
16/09:30am 19.5 18.3 11.5 60 4.4 NNW 9 13 5 7 - - 0.0
16/09:00am 18.1 17.6 11.9 67 3.4 NNW 6 11 3 6 - - 0.0
16/08:30am 15.3 15.0 11.5 78 2.0 NE 4 4 2 2 - - 0.0
16/08:00am 13.1 12.7 11.0 87 1.1 E 4 6 2 3 - - 0.0
16/07:30am 11.0 10.1 9.3 89 0.8 E 4 6 2 3 - - 0.0
16/07:00am 9.7 8.1 8.0 89 0.8 ESE 6 7 3 4 - - 0.0
16/06:30am 9.1 7.3 7.2 88 0.9 ESE 6 9 3 5 - - 0.0
16/06:00am 9.3 7.5 7.3 87 0.9 SSE 6 7 3 4 - - 0.0
16/05:30am 9.5 7.7 7.3 86 1.0 S 6 6 3 3 - - 0.0
16/05:00am 9.7 8.4 7.5 86 1.0 SE 4 4 2 2 - - 0.0
16/04:30am 9.9 8.6 7.7 86 1.1 ESE 4 6 2 3 - - 0.0
16/04:00am 10.4 8.7 8.2 86 1.1 SSE 7 9 4 5 - - 0.0
16/03:30am 10.3 8.5 7.9 85 1.2 SSE 7 11 4 6 - - 0.0
16/03:00am 10.5 9.3 7.9 84 1.3 S 4 7 2 4 - - 0.0
16/02:30am 10.7 9.1 7.9 83 1.4 S 6 6 3 3 - - 0.0
16/02:00am 10.9 9.8 8.3 84 1.3 S 4 6 2 3 - - 0.0
16/01:30am 11.1 9.6 8.3 83 1.4 S 6 7 3 4 - - 0.0
16/01:00am 11.3 9.8 8.5 83 1.4 S 6 7 3 4 - - 0.0
16/12:30am 11.6 10.1 9.0 84 1.3 S 7 9 4 5 - - 0.0
16/12:00am 11.8 10.3 9.0 83 1.4 S 7 9 4 5 - - 0.0
 
Date/Time
CST
Temp
°C
App
Temp
°C
Dew
Point
Rel
Hum
%
Delta-T
°C
Wind Press
QNH
hPa
Press
MSL
hPa
Rain
since 9 am
mm
Dir
 
Spd
km/h
Gust
km/h
Spd
kts
Gust
kts
15/11:30pm 12.6 10.8 9.6 82 1.5 SSE 9 11 5 6 - - 0.0
15/11:00pm 12.8 10.8 10.2 84 1.3 SSE 11 13 6 7 - - 0.0
15/10:30pm 13.0 11.0 10.2 83 1.4 SSE 11 15 6 8 - - 0.0
15/10:00pm 13.0 11.0 10.0 82 1.5 S 11 13 6 7 - - 0.0
15/09:30pm 13.3 11.2 9.9 80 1.7 S 11 11 6 6 - - 0.0
15/09:00pm 13.6 12.0 10.2 80 1.8 SE 9 11 5 6 - - 0.0
15/08:30pm 14.0 12.3 10.0 77 2.1 SSE 9 9 5 5 - - 0.0
15/08:00pm 14.9 13.8 10.7 76 2.2 SSE 7 11 4 6 - - 0.0
15/07:30pm 15.5 14.2 11.3 76 2.3 SSE 9 11 5 6 - - 0.0
15/07:00pm 16.6 15.0 11.7 73 2.7 SSW 11 13 6 7 - - 0.0
15/06:30pm 17.5 15.2 11.8 69 3.1 SSW 15 19 8 10 - - 0.0
15/06:00pm 18.8 15.9 12.3 66 3.6 SSW 19 26 10 14 - - 0.0
15/05:30pm 20.3 17.1 11.8 58 4.7 SW 20 28 11 15 - - 0.0
15/05:00pm 22.1 19.8 10.3 47 6.4 S 13 22 7 12 - - 0.0
15/04:30pm 23.7 21.4 7.3 35 8.6 SSE 9 15 5 8 - - 0.0
15/04:00pm 24.0 21.4 7.6 35 8.6 SE 11 20 6 11 - - 0.0
15/03:30pm 24.3 22.0 7.4 34 8.9 SE 9 17 5 9 - - 0.0
15/03:00pm 24.4 22.6 7.1 33 9.0 ESE 6 17 3 9 - - 0.0
15/02:30pm 24.8 22.1 7.4 33 9.2 ESE 11 19 6 10 - - 0.0
15/02:00pm 24.2 21.8 6.9 33 9.0 SE 9 22 5 12 - - 0.0
15/01:30pm 23.7 20.1 6.9 34 8.7 ESE 15 22 8 12 - - 0.0
15/01:00pm 23.4 20.2 6.7 34 8.6 SE 13 24 7 13 - - 0.0
15/12:30pm 23.1 20.0 7.2 36 8.3 SE 13 20 7 11 - - 0.0
15/12:00pm 23.2 20.6 9.2 41 7.5 E 13 24 7 13 - - 0.0
15/11:30am 22.6 19.0 8.3 40 7.5 ESE 17 26 9 14 - - 0.0
15/11:00am 21.8 18.4 9.0 44 6.8 SE 17 26 9 14 - - 0.0
15/10:30am 21.5 18.2 9.4 46 6.5 SE 17 20 9 11 - - 0.0
15/10:00am 19.4 16.2 10.1 55 5.0 SSE 17 22 9 12 - - 0.0
15/09:30am 18.0 15.2 9.9 59 4.3 SSE 15 20 8 11 - - 0.0
15/09:00am 16.6 13.6 10.7 68 3.1 SSE 17 22 9 12 - - 0.0
15/08:30am 14.7 11.1 9.9 73 2.5 SSE 19 26 10 14 - - 0.0
15/08:00am 13.1 9.9 9.9 81 1.6 SSE 17 22 9 12 - - 0.0
15/07:30am 11.5 9.1 9.9 90 0.8 S 13 17 7 9 - - 0.0
15/07:00am 10.5 8.3 9.3 92 0.6 S 11 13 6 7 - - 0.0
15/06:30am 10.7 8.0 9.1 90 0.8 SSE 13 15 7 8 - - 0.0
15/06:00am 11.1 7.8 9.4 89 0.9 SSE 17 24 9 13 - - 0.0
15/05:30am 11.3 8.0 9.4 88 1.0 SE 17 22 9 12 - - 0.0
15/05:00am 11.6 8.8 9.9 89 0.9 SE 15 20 8 11 - - 0.0
15/04:30am 11.0 8.4 9.3 89 0.8 SSE 13 19 7 10 - - 0.0
15/04:00am 10.5 7.8 8.8 89 0.8 SSE 13 15 7 8 - - 0.0
15/03:30am 10.8 8.1 8.9 88 0.9 SSE 13 19 7 10 - - 0.0
15/03:00am 11.1 8.4 9.0 87 1.0 SSE 13 20 7 11 - - 0.0
15/02:30am 11.3 8.2 8.9 85 1.2 SSE 15 20 8 11 - - 0.0
15/02:00am 11.6 8.6 9.2 85 1.2 SSE 15 20 8 11 - - 0.0
15/01:30am 11.0 8.1 8.2 83 1.4 SSE 13 20 7 11 - - 0.0
15/01:00am 10.9 7.9 7.8 81 1.5 S 13 17 7 9 - - 0.0
15/12:30am 11.2 7.9 7.9 80 1.6 S 15 20 8 11 - - 0.0
15/12:00am 11.1 8.1 7.8 80 1.6 SSE 13 17 7 9 - - 0.0
 
Date/Time
CST
Temp
°C
App
Temp
°C
Dew
Point
Rel
Hum
%
Delta-T
°C
Wind Press
QNH
hPa
Press
MSL
hPa
Rain
since 9 am
mm
Dir
 
Spd
km/h
Gust
km/h
Spd
kts
Gust
kts
14/11:30pm 11.6 9.0 7.7 77 1.9 S 11 15 6 8 - - 0.0
14/11:00pm 12.5 9.9 7.6 72 2.4 SSE 11 15 6 8 - - 0.0
14/10:30pm 12.6 9.6 7.9 73 2.3 SSE 13 17 7 9 - - 0.0
14/10:00pm 12.9 10.7 8.0 72 2.4 SSE 9 11 5 6 - - 0.0
14/09:30pm 13.8 11.3 8.2 69 2.8 SSE 11 15 6 8 - - 0.0

Other Formats:

Comma delimited format used in spreadsheet applications
http://www.bom.gov.au/fwo/IDS60801/IDS60801.99001.axf

JavaScript Object Notation format (JSON) in row-major order
http://www.bom.gov.au/fwo/IDS60801/IDS60801.99001.json